Time;durP1;ratioP1;P1;durP2;ratioP2;P2;SDS_P1;SDS_P2;PMS_P1;PMS_P2;Temp;Humidity;BMP_temperature;BMP_pressure;BME280_temperature;BME280_humidity;BME280_pressure;Samples;Min_cycle;Max_cycle;Signal;HPM_P1;HPM_P2
2023/02/17 00:00:53;;;;;;;19.97;11.80;;;;;;;;;;5109609;28;20742;-81
2023/02/17 00:03:21;;;;;;;17.73;11.67;;;;;;;;;;5113896;28;20700;-81
2023/02/17 00:05:48;;;;;;;15.43;10.13;;;;;;;;;;5113891;28;20284;-81
2023/02/17 00:08:14;;;;;;;15.43;11.53;;;;;;;;;;5113756;28;20196;-81
2023/02/17 00:10:41;;;;;;;19.03;13.07;;;;;;;;;;5099501;28;20308;-82
2023/02/17 00:13:08;;;;;;;18.00;12.27;;;;;;;;;;5113412;28;20681;-82
2023/02/17 00:15:34;;;;;;;19.73;14.43;;;;;;;;;;5110050;28;20610;-81
2023/02/17 00:18:02;;;;;;;20.23;12.57;;;;;;;;;;5104122;28;20191;-81
2023/02/17 00:20:31;;;;;;;19.23;12.67;;;;;;;;;;5112845;28;20202;-82
2023/02/17 00:22:57;;;;;;;18.03;13.43;;;;;;;;;;5113481;28;20199;-82
2023/02/17 00:25:24;;;;;;;21.47;13.23;;;;;;;;;;5113142;28;20230;-81
2023/02/17 00:27:51;;;;;;;16.13;11.27;;;;;;;;;;5113296;28;20207;-81
2023/02/17 00:30:18;;;;;;;17.87;12.40;;;;;;;;;;5099186;28;20222;-81
2023/02/17 00:32:45;;;;;;;16.10;11.13;;;;;;;;;;5112909;28;20207;-81
2023/02/17 00:35:12;;;;;;;16.30;11.63;;;;;;;;;;5113196;28;20214;-81
2023/02/17 00:37:44;;;;;;;18.33;12.77;;;;;;;;;;5112979;28;20666;-81
2023/02/17 00:40:11;;;;;;;17.57;12.37;;;;;;;;;;5093197;28;20197;-81
2023/02/17 00:42:41;;;;;;;14.67;11.47;;;;;;;;;;5092989;28;20196;-81
2023/02/17 00:45:09;;;;;;;19.20;12.47;;;;;;;;;;5106017;28;20204;-82
2023/02/17 00:47:35;;;;;;;18.87;13.23;;;;;;;;;;5093100;28;20228;-83
2023/02/17 00:50:02;;;;;;;19.73;12.87;;;;;;;;;;5105610;28;20594;-82
2023/02/17 00:52:29;;;;;;;18.33;13.07;;;;;;;;;;5105546;28;20203;-82
2023/02/17 00:54:57;;;;;;;20.53;14.07;;;;;;;;;;5098572;28;20208;-86
2023/02/17 00:57:25;;;;;;;19.17;13.17;;;;;;;;;;5112892;28;20252;-81
2023/02/17 00:59:51;;;;;;;19.70;13.37;;;;;;;;;;5112672;28;20223;-82
2023/02/17 01:02:18;;;;;;;17.23;13.40;;;;;;;;;;5112280;28;20210;-81
2023/02/17 01:04:45;;;;;;;19.10;12.83;;;;;;;;;;5105145;28;20211;-81
2023/02/17 01:07:12;;;;;;;21.10;13.93;;;;;;;;;;5092923;28;20200;-82
2023/02/17 01:09:38;;;;;;;20.27;12.20;;;;;;;;;;5112358;28;20846;-81
2023/02/17 01:12:07;;;;;;;17.67;11.97;;;;;;;;;;5098610;28;20200;-82
2023/02/17 01:14:33;;;;;;;18.73;12.30;;;;;;;;;;5112120;28;20187;-82
2023/02/17 01:17:00;;;;;;;18.33;13.13;;;;;;;;;;5098552;28;20262;-82
2023/02/17 01:19:27;;;;;;;16.20;11.73;;;;;;;;;;5112500;28;20204;-85
2023/02/17 01:21:54;;;;;;;17.07;12.53;;;;;;;;;;5112447;28;20563;-81
2023/02/17 01:24:20;;;;;;;15.13;12.17;;;;;;;;;;5103002;28;20204;-81
2023/02/17 01:26:47;;;;;;;18.50;12.67;;;;;;;;;;5108026;28;20215;-81
2023/02/17 01:29:15;;;;;;;19.80;12.83;;;;;;;;;;5103132;28;20265;-82
2023/02/17 01:31:42;;;;;;;34.17;21.33;;;;;;;;;;5107843;28;20236;-82
2023/02/17 01:34:10;;;;;;;50.27;24.03;;;;;;;;;;5112352;28;20207;-81
2023/02/17 01:36:37;;;;;;;54.73;30.00;;;;;;;;;;5112116;28;20214;-81
2023/02/17 01:39:04;;;;;;;23.80;15.30;;;;;;;;;;5112223;28;20256;-82
2023/02/17 01:41:31;;;;;;;43.87;27.47;;;;;;;;;;5108479;28;20196;-81
2023/02/17 01:44:11;;;;;;;17.67;12.87;;;;;;;;;;5101781;28;20207;-81
2023/02/17 01:46:40;;;;;;;17.90;13.43;;;;;;;;;;5111369;28;20226;-81
2023/02/17 01:49:16;;;;;;;18.23;12.23;;;;;;;;;;5112067;28;20263;-81
2023/02/17 01:51:43;;;;;;;17.23;12.03;;;;;;;;;;5091518;28;20231;-82
2023/02/17 01:54:14;;;;;;;16.57;12.07;;;;;;;;;;5105847;28;20631;-82
2023/02/17 01:56:43;;;;;;;18.20;13.20;;;;;;;;;;5111602;28;20199;-82
2023/02/17 01:59:13;;;;;;;19.33;12.67;;;;;;;;;;5111948;28;20221;-82
2023/02/17 02:01:41;;;;;;;19.40;13.00;;;;;;;;;;5111522;28;20207;-82
2023/02/17 02:04:08;;;;;;;16.50;13.03;;;;;;;;;;5109100;28;20234;-82
2023/02/17 02:06:36;;;;;;;17.93;12.13;;;;;;;;;;5100973;28;20207;-82
2023/02/17 02:09:05;;;;;;;17.47;13.67;;;;;;;;;;5111564;28;20202;-82
2023/02/17 02:11:32;;;;;;;14.33;10.30;;;;;;;;;;5111672;28;20224;-82
2023/02/17 02:13:59;;;;;;;18.70;12.00;;;;;;;;;;5108327;28;20208;-81
2023/02/17 02:16:29;;;;;;;17.97;12.80;;;;;;;;;;5101775;28;20200;-81
2023/02/17 02:19:02;;;;;;;17.10;10.37;;;;;;;;;;5093866;28;20211;-81
2023/02/17 02:21:52;;;;;;;17.07;12.67;;;;;;;;;;5091149;28;20260;-82
2023/02/17 02:24:26;;;;;;;18.27;12.27;;;;;;;;;;5099530;28;20635;-82
2023/02/17 02:27:37;;;;;;;16.07;11.53;;;;;;;;;;5097765;28;20233;-81
2023/02/17 02:30:43;;;;;;;17.87;12.67;;;;;;;;;;5105634;28;20260;-82
2023/02/17 02:33:17;;;;;;;16.23;12.73;;;;;;;;;;5110764;28;20584;-82
2023/02/17 02:35:51;;;;;;;16.63;11.90;;;;;;;;;;5099912;28;20207;-81
2023/02/17 02:38:22;;;;;;;17.30;11.73;;;;;;;;;;5108188;28;20192;-82
2023/02/17 02:40:52;;;;;;;15.97;11.37;;;;;;;;;;5101742;28;20290;-81
2023/02/17 02:43:20;;;;;;;17.67;12.13;;;;;;;;;;5097285;28;20670;-82
2023/02/17 02:45:47;;;;;;;18.43;11.90;;;;;;;;;;5099685;28;20235;-82
2023/02/17 02:48:15;;;;;;;15.90;10.83;;;;;;;;;;5090840;28;20207;-82
2023/02/17 02:50:57;;;;;;;14.90;11.90;;;;;;;;;;5103141;28;20231;-82
2023/02/17 02:53:36;;;;;;;15.60;11.90;;;;;;;;;;5111319;28;20620;-82
2023/02/17 02:56:11;;;;;;;17.03;11.40;;;;;;;;;;5108568;28;20203;-82
2023/02/17 02:58:43;;;;;;;17.90;12.50;;;;;;;;;;5101715;28;20202;-82
2023/02/17 03:01:13;;;;;;;18.23;12.53;;;;;;;;;;5111001;28;20203;-82
2023/02/17 03:03:45;;;;;;;18.17;12.33;;;;;;;;;;5110975;28;20203;-82
2023/02/17 03:06:15;;;;;;;17.97;11.07;;;;;;;;;;5104728;28;20583;-82
2023/02/17 03:08:45;;;;;;;16.77;12.17;;;;;;;;;;5104597;28;20203;-84
2023/02/17 03:11:13;;;;;;;17.27;12.47;;;;;;;;;;5090655;28;20270;-82
2023/02/17 03:13:40;;;;;;;32.23;17.37;;;;;;;;;;5091567;28;20691;-82
2023/02/17 03:16:07;;;;;;;99.40;57.30;;;;;;;;;;5110802;28;20207;-82
2023/02/17 03:18:35;;;;;;;64.33;39.17;;;;;;;;;;5113170;28;20235;-82
2023/02/17 03:21:06;;;;;;;39.60;23.40;;;;;;;;;;5102653;28;20203;-81
2023/02/17 03:23:33;;;;;;;34.00;22.73;;;;;;;;;;5101159;28;20212;-82
2023/02/17 03:26:00;;;;;;;54.93;33.17;;;;;;;;;;5114464;28;20195;-82
2023/02/17 03:28:27;;;;;;;43.67;26.17;;;;;;;;;;5100905;28;20204;-82
2023/02/17 03:30:54;;;;;;;23.43;15.47;;;;;;;;;;5114171;28;20248;-82
2023/02/17 03:33:20;;;;;;;16.53;11.90;;;;;;;;;;5111212;28;20276;-82
2023/02/17 03:35:47;;;;;;;17.67;11.97;;;;;;;;;;5103287;28;20195;-81
2023/02/17 03:38:15;;;;;;;15.83;11.47;;;;;;;;;;5113965;28;20196;-82
2023/02/17 03:40:42;;;;;;;16.47;11.30;;;;;;;;;;5114010;28;20648;-82
2023/02/17 03:43:09;;;;;;;21.73;13.80;;;;;;;;;;5111076;28;20683;-82
2023/02/17 03:45:36;;;;;;;20.13;13.20;;;;;;;;;;5103755;28;20223;-83
2023/02/17 03:48:02;;;;;;;18.47;13.00;;;;;;;;;;5114628;28;20264;-82
2023/02/17 03:50:29;;;;;;;19.07;12.17;;;;;;;;;;5113691;28;20584;-81
2023/02/17 03:52:56;;;;;;;17.07;11.00;;;;;;;;;;5113913;28;20272;-82
2023/02/17 03:55:24;;;;;;;16.13;11.13;;;;;;;;;;5113823;28;20199;-81
2023/02/17 03:57:51;;;;;;;21.43;14.13;;;;;;;;;;5113479;28;20252;-82
2023/02/17 04:00:18;;;;;;;27.83;16.00;;;;;;;;;;5114026;28;20207;-82
2023/02/17 04:02:45;;;;;;;55.93;26.03;;;;;;;;;;5095597;28;20661;-82
2023/02/17 04:05:12;;;;;;;23.80;14.73;;;;;;;;;;5093438;28;20225;-82
2023/02/17 04:07:38;;;;;;;17.30;12.57;;;;;;;;;;5107165;28;20204;-82
2023/02/17 04:10:07;;;;;;;24.80;15.93;;;;;;;;;;5093325;28;20253;-84
2023/02/17 04:12:35;;;;;;;28.13;17.60;;;;;;;;;;5106878;28;20235;-82
2023/02/17 04:15:01;;;;;;;34.17;22.60;;;;;;;;;;5104964;28;20204;-82
2023/02/17 04:17:28;;;;;;;25.97;15.47;;;;;;;;;;5107429;28;20196;-82
2023/02/17 04:19:55;;;;;;;19.07;13.73;;;;;;;;;;5093400;28;20196;-82
2023/02/17 04:22:22;;;;;;;17.17;12.07;;;;;;;;;;5077775;28;20208;-82
2023/02/17 04:24:49;;;;;;;15.23;10.90;;;;;;;;;;5100513;28;20204;-82
2023/02/17 04:27:16;;;;;;;16.57;11.73;;;;;;;;;;5098784;28;20753;-83
2023/02/17 04:29:44;;;;;;;15.53;11.57;;;;;;;;;;5100337;28;20273;-82
2023/02/17 04:32:11;;;;;;;18.17;11.80;;;;;;;;;;5106418;28;20223;-83
2023/02/17 04:34:38;;;;;;;15.70;11.47;;;;;;;;;;5106523;28;20285;-83
2023/02/17 04:37:05;;;;;;;19.60;11.50;;;;;;;;;;5092301;28;20218;-89
2023/02/17 04:39:32;;;;;;;20.60;11.97;;;;;;;;;;5108886;28;20199;-82
2023/02/17 04:41:59;;;;;;;34.60;20.03;;;;;;;;;;5112519;28;20214;-83
2023/02/17 04:44:25;;;;;;;23.07;16.17;;;;;;;;;;5112538;28;20210;-82
2023/02/17 04:46:54;;;;;;;37.27;23.20;;;;;;;;;;5112998;28;20231;-82
2023/02/17 04:49:21;;;;;;;25.70;17.03;;;;;;;;;;5081041;28;20208;-83
2023/02/17 04:51:48;;;;;;;25.17;17.10;;;;;;;;;;5113021;28;20639;-82
2023/02/17 04:54:14;;;;;;;23.63;17.30;;;;;;;;;;5099371;28;20207;-83
2023/02/17 04:56:41;;;;;;;24.27;16.63;;;;;;;;;;5112372;28;20735;-81
2023/02/17 04:59:08;;;;;;;21.10;14.60;;;;;;;;;;5080204;28;20200;-80
2023/02/17 05:01:35;;;;;;;20.93;13.47;;;;;;;;;;5111117;28;20670;-83
2023/02/17 05:04:03;;;;;;;20.77;14.07;;;;;;;;;;5100177;28;20200;-81
2023/02/17 05:06:30;;;;;;;14.80;11.10;;;;;;;;;;5111768;28;20261;-82
2023/02/17 05:08:57;;;;;;;18.40;12.13;;;;;;;;;;5112132;28;20261;-82
2023/02/17 05:11:24;;;;;;;21.70;14.67;;;;;;;;;;5109949;28;20235;-82
2023/02/17 05:13:51;;;;;;;18.80;12.13;;;;;;;;;;5112481;28;20199;-82
2023/02/17 05:16:18;;;;;;;18.50;12.67;;;;;;;;;;5080271;28;20207;-82
2023/02/17 05:18:45;;;;;;;17.47;13.30;;;;;;;;;;5112288;28;20211;-82
2023/02/17 05:21:14;;;;;;;23.13;15.93;;;;;;;;;;5104770;28;20636;-80
2023/02/17 05:23:41;;;;;;;90.00;48.87;;;;;;;;;;5070978;28;20203;-81
2023/02/17 05:26:08;;;;;;;82.43;45.10;;;;;;;;;;5111708;28;20204;-82
2023/02/17 05:28:35;;;;;;;36.17;22.37;;;;;;;;;;5111876;28;20294;-82
2023/02/17 05:31:02;;;;;;;143.57;61.73;;;;;;;;;;5080258;28;20222;-82
2023/02/17 05:33:29;;;;;;;223.27;109.13;;;;;;;;;;5106873;28;20202;-84
2023/02/17 05:35:56;;;;;;;72.70;35.17;;;;;;;;;;5110207;28;20682;-81
2023/02/17 05:38:24;;;;;;;51.70;27.70;;;;;;;;;;5102797;28;20200;-82
2023/02/17 05:40:51;;;;;;;26.80;19.00;;;;;;;;;;5110819;28;20673;-82
2023/02/17 05:43:19;;;;;;;24.73;16.03;;;;;;;;;;5111460;28;20685;-83
2023/02/17 05:45:46;;;;;;;64.07;39.70;;;;;;;;;;5092555;28;20220;-82
2023/02/17 05:48:12;;;;;;;59.60;36.70;;;;;;;;;;5103307;28;20204;-82
2023/02/17 05:50:39;;;;;;;69.17;41.47;;;;;;;;;;5098068;28;20200;-82
2023/02/17 05:53:06;;;;;;;35.43;20.00;;;;;;;;;;5111576;28;20288;-83
2023/02/17 05:55:34;;;;;;;25.67;18.10;;;;;;;;;;5111639;28;20677;-82
2023/02/17 05:58:01;;;;;;;23.50;16.80;;;;;;;;;;5111827;28;20212;-82
2023/02/17 06:00:28;;;;;;;22.20;16.13;;;;;;;;;;5111357;28;20214;-82
2023/02/17 06:02:54;;;;;;;23.47;15.37;;;;;;;;;;5111887;28;20272;-82
2023/02/17 06:05:22;;;;;;;20.63;14.40;;;;;;;;;;5105561;28;20196;-83
2023/02/17 06:07:49;;;;;;;22.10;15.10;;;;;;;;;;5104591;28;20291;-83
2023/02/17 06:10:16;;;;;;;23.93;16.90;;;;;;;;;;5111789;28;20206;-83
2023/02/17 06:12:44;;;;;;;25.17;17.97;;;;;;;;;;5105034;28;20255;-83
2023/02/17 06:15:11;;;;;;;42.93;31.00;;;;;;;;;;5091336;28;20902;-83
2023/02/17 06:17:38;;;;;;;39.00;33.40;;;;;;;;;;5111383;28;20199;-83
2023/02/17 06:20:06;;;;;;;34.50;30.50;;;;;;;;;;5110164;28;20635;-84
2023/02/17 06:22:33;;;;;;;35.47;28.67;;;;;;;;;;5099073;28;20761;-83
2023/02/17 06:25:00;;;;;;;33.90;22.03;;;;;;;;;;5097619;28;20732;-85
2023/02/17 06:27:27;;;;;;;27.83;20.17;;;;;;;;;;5111989;28;20212;-84
2023/02/17 06:29:55;;;;;;;25.13;16.93;;;;;;;;;;5111146;28;20195;-85
2023/02/17 06:32:22;;;;;;;29.23;20.83;;;;;;;;;;5111505;28;20235;-85
2023/02/17 06:34:48;;;;;;;30.97;23.60;;;;;;;;;;5095522;28;20265;-85
2023/02/17 06:37:15;;;;;;;29.57;22.50;;;;;;;;;;5100435;28;20203;-86
2023/02/17 06:39:42;;;;;;;31.63;22.90;;;;;;;;;;5111295;28;20207;-86
2023/02/17 06:42:09;;;;;;;30.53;21.07;;;;;;;;;;5111213;28;20207;-86
2023/02/17 06:44:36;;;;;;;27.03;20.80;;;;;;;;;;5111857;28;20582;-85
2023/02/17 06:47:04;;;;;;;41.07;24.23;;;;;;;;;;5101971;28;20286;-85
2023/02/17 06:49:34;;;;;;;33.27;23.33;;;;;;;;;;5108436;28;20200;-84
2023/02/17 06:52:01;;;;;;;35.73;23.53;;;;;;;;;;5114237;28;20231;-84
2023/02/17 06:54:28;;;;;;;32.13;23.73;;;;;;;;;;5115459;28;20635;-84
2023/02/17 06:56:55;;;;;;;39.33;25.17;;;;;;;;;;5115096;28;20204;-83
2023/02/17 06:59:22;;;;;;;35.57;25.20;;;;;;;;;;5115243;28;20204;-83
2023/02/17 07:01:49;;;;;;;35.13;25.20;;;;;;;;;;5115328;28;20278;-83
2023/02/17 07:04:17;;;;;;;33.10;24.87;;;;;;;;;;5114611;28;20206;-83
2023/02/17 07:06:44;;;;;;;37.23;24.60;;;;;;;;;;5114851;28;20740;-83
2023/02/17 07:09:12;;;;;;;43.90;29.10;;;;;;;;;;5101164;28;20207;-83
2023/02/17 07:11:40;;;;;;;24.60;16.87;;;;;;;;;;5114720;28;20231;-83
2023/02/17 07:14:07;;;;;;;21.73;16.10;;;;;;;;;;5114952;28;20290;-85
2023/02/17 07:16:34;;;;;;;30.97;20.20;;;;;;;;;;5114595;28;20282;-83
2023/02/17 07:19:01;;;;;;;27.10;19.67;;;;;;;;;;5095637;28;20188;-83
2023/02/17 07:21:29;;;;;;;23.50;17.70;;;;;;;;;;5106208;28;20264;-82
2023/02/17 07:23:55;;;;;;;25.13;17.43;;;;;;;;;;5114653;28;20265;-82
2023/02/17 07:26:22;;;;;;;27.93;18.70;;;;;;;;;;5114339;28;20257;-83
2023/02/17 07:28:49;;;;;;;28.33;19.53;;;;;;;;;;5114283;28;20662;-82
2023/02/17 07:31:17;;;;;;;29.93;21.33;;;;;;;;;;5114152;28;20238;-82
2023/02/17 07:33:46;;;;;;;34.20;23.30;;;;;;;;;;5113861;28;20747;-83
2023/02/17 07:36:15;;;;;;;32.07;20.37;;;;;;;;;;5101204;28;20295;-83
2023/02/17 07:38:43;;;;;;;27.77;19.50;;;;;;;;;;5113865;28;20214;-83
2023/02/17 07:41:11;;;;;;;32.37;19.37;;;;;;;;;;5113428;28;20196;-84
2023/02/17 07:43:38;;;;;;;24.03;18.63;;;;;;;;;;5107115;28;20248;-83
2023/02/17 07:46:05;;;;;;;21.60;16.57;;;;;;;;;;5106880;28;20313;-82
2023/02/17 07:48:32;;;;;;;25.80;17.73;;;;;;;;;;5093374;28;20699;-82
2023/02/17 07:51:04;;;;;;;23.60;15.33;;;;;;;;;;5093780;28;20205;-82
2023/02/17 07:53:31;;;;;;;20.83;15.13;;;;;;;;;;5113997;28;20235;-82
2023/02/17 07:55:59;;;;;;;30.03;19.83;;;;;;;;;;5099838;28;20219;-82
2023/02/17 07:58:26;;;;;;;28.53;19.87;;;;;;;;;;5114022;28;20207;-82
2023/02/17 08:00:53;;;;;;;29.67;19.33;;;;;;;;;;5099915;28;20198;-83
2023/02/17 08:03:20;;;;;;;23.60;16.77;;;;;;;;;;5112998;28;20264;-80
2023/02/17 08:05:49;;;;;;;23.30;17.80;;;;;;;;;;5099686;28;20687;-80
2023/02/17 08:13:46;;;;;;;24.40;17.37;;;;;;;;;;5111167;28;20234;-83
2023/02/17 08:16:13;;;;;;;27.07;18.73;;;;;;;;;;5101497;28;20203;-83
2023/02/17 08:18:40;;;;;;;27.90;20.80;;;;;;;;;;5113167;28;20204;-84
2023/02/17 08:21:07;;;;;;;27.43;19.33;;;;;;;;;;5113413;28;20268;-83
2023/02/17 08:23:34;;;;;;;24.80;18.50;;;;;;;;;;5112966;28;20327;-80
2023/02/17 08:26:03;;;;;;;24.57;17.40;;;;;;;;;;5112839;28;20260;-80
2023/02/17 08:28:31;;;;;;;22.23;15.80;;;;;;;;;;5099040;28;20208;-82
2023/02/17 08:30:58;;;;;;;20.27;14.90;;;;;;;;;;5112894;28;20268;-81
2023/02/17 08:33:28;;;;;;;20.20;14.87;;;;;;;;;;5112489;28;20238;-81
2023/02/17 08:35:54;;;;;;;25.20;17.60;;;;;;;;;;5103007;28;20265;-81
2023/02/17 08:38:21;;;;;;;21.57;13.63;;;;;;;;;;5109613;28;20271;-81
2023/02/17 08:40:48;;;;;;;22.10;14.57;;;;;;;;;;5112632;28;20627;-81
2023/02/17 08:43:16;;;;;;;18.10;13.00;;;;;;;;;;5095128;28;20196;-81
2023/02/17 08:45:43;;;;;;;22.23;15.30;;;;;;;;;;5092704;28;20633;-82
2023/02/17 08:48:09;;;;;;;18.00;11.60;;;;;;;;;;5109547;28;20200;-83
2023/02/17 08:50:36;;;;;;;15.27;11.40;;;;;;;;;;5112504;28;20211;-81
2023/02/17 08:53:06;;;;;;;16.20;11.67;;;;;;;;;;5112084;28;20227;-81
2023/02/17 08:55:32;;;;;;;13.63;9.87;;;;;;;;;;5112508;28;20211;-81
2023/02/17 08:57:59;;;;;;;15.20;10.03;;;;;;;;;;5112508;28;20200;-81
2023/02/17 09:00:27;;;;;;;14.77;11.00;;;;;;;;;;5101089;28;20203;-81
2023/02/17 09:02:54;;;;;;;11.73;9.43;;;;;;;;;;5110708;28;20199;-82
2023/02/17 09:05:21;;;;;;;14.13;11.10;;;;;;;;;;5112421;28;20214;-81
2023/02/17 09:07:48;;;;;;;11.93;10.40;;;;;;;;;;5093320;28;20674;-82
2023/02/17 09:10:14;;;;;;;13.00;9.67;;;;;;;;;;5104544;28;20199;-81
2023/02/17 09:12:41;;;;;;;14.60;11.00;;;;;;;;;;5098648;28;20227;-82
2023/02/17 09:15:09;;;;;;;17.23;11.57;;;;;;;;;;5097634;28;20196;-81
2023/02/17 09:17:40;;;;;;;17.10;11.87;;;;;;;;;;5105381;28;20742;-81
2023/02/17 09:20:08;;;;;;;14.30;11.60;;;;;;;;;;5106243;28;20241;-81
2023/02/17 09:22:35;;;;;;;20.00;13.03;;;;;;;;;;5104364;28;20209;-81
2023/02/17 09:25:01;;;;;;;168.80;92.13;;;;;;;;;;5092521;28;20204;-81
2023/02/17 09:27:28;;;;;;;36.53;21.17;;;;;;;;;;5104267;28;20184;-82
2023/02/17 09:29:55;;;;;;;15.83;11.77;;;;;;;;;;5106446;28;20701;-82
2023/02/17 09:32:22;;;;;;;16.77;12.57;;;;;;;;;;5112109;28;20280;-82
2023/02/17 09:34:50;;;;;;;28.93;19.23;;;;;;;;;;5098496;28;20196;-81
2023/02/17 09:37:17;;;;;;;23.70;17.30;;;;;;;;;;5102995;28;20286;-82
2023/02/17 09:39:44;;;;;;;26.07;16.63;;;;;;;;;;5105496;28;20290;-82
2023/02/17 09:42:13;;;;;;;23.27;16.03;;;;;;;;;;5091399;28;20261;-82
2023/02/17 09:44:43;;;;;;;25.50;16.17;;;;;;;;;;5105190;28;20269;-83
2023/02/17 09:47:14;;;;;;;18.53;13.47;;;;;;;;;;5101474;28;20223;-84
2023/02/17 09:49:44;;;;;;;24.17;15.93;;;;;;;;;;5112021;28;20203;-82
2023/02/17 09:52:16;;;;;;;26.53;14.77;;;;;;;;;;5100196;28;20664;-82
2023/02/17 09:54:51;;;;;;;25.50;15.50;;;;;;;;;;5091219;28;20705;-82
2023/02/17 09:57:20;;;;;;;22.53;14.87;;;;;;;;;;5104747;28;20210;-82
2023/02/17 09:59:50;;;;;;;19.03;14.60;;;;;;;;;;5111979;28;20260;-81
2023/02/17 10:02:26;;;;;;;22.70;15.53;;;;;;;;;;5097799;28;20333;-81
2023/02/17 10:04:54;;;;;;;19.70;14.60;;;;;;;;;;5111503;28;20237;-82
2023/02/17 10:07:27;;;;;;;19.17;13.67;;;;;;;;;;5098055;28;20199;-82
2023/02/17 10:09:57;;;;;;;26.43;14.67;;;;;;;;;;5111313;28;20230;-82
2023/02/17 10:12:26;;;;;;;27.07;17.70;;;;;;;;;;5110802;28;20219;-81
2023/02/17 10:14:56;;;;;;;27.50;21.93;;;;;;;;;;5100354;28;20204;-82
2023/02/17 10:17:29;;;;;;;26.87;17.87;;;;;;;;;;5109624;28;20226;-81
2023/02/17 10:20:00;;;;;;;26.13;20.03;;;;;;;;;;5098788;28;20200;-81
2023/02/17 10:22:33;;;;;;;24.47;16.97;;;;;;;;;;5110840;28;20682;-81
2023/02/17 10:25:00;;;;;;;23.30;18.67;;;;;;;;;;5110961;28;20241;-81
2023/02/17 10:27:37;;;;;;;22.20;15.97;;;;;;;;;;5101963;28;20618;-81
2023/02/17 10:30:25;;;;;;;21.40;15.90;;;;;;;;;;5101772;28;20290;-83
2023/02/17 10:33:00;;;;;;;22.30;17.03;;;;;;;;;;5114939;28;20238;-82
2023/02/17 10:35:36;;;;;;;18.10;15.37;;;;;;;;;;5115377;28;20291;-81
2023/02/17 10:38:14;;;;;;;17.83;13.77;;;;;;;;;;5101501;28;20202;-81
2023/02/17 10:40:40;;;;;;;20.13;14.37;;;;;;;;;;5115328;28;20592;-82
2023/02/17 10:43:09;;;;;;;24.07;14.70;;;;;;;;;;5098607;28;20223;-81
2023/02/17 10:45:41;;;;;;;19.47;13.47;;;;;;;;;;5105169;28;20248;-82
2023/02/17 10:48:11;;;;;;;18.23;11.80;;;;;;;;;;5115365;28;20291;-81
2023/02/17 10:50:41;;;;;;;18.27;13.83;;;;;;;;;;5115321;28;20209;-81
2023/02/17 10:53:14;;;;;;;34.60;15.93;;;;;;;;;;5096062;28;20201;-81
2023/02/17 10:55:49;;;;;;;19.00;14.13;;;;;;;;;;5094907;28;20727;-81
2023/02/17 10:58:20;;;;;;;14.70;12.17;;;;;;;;;;5101677;28;20201;-82
2023/02/17 11:00:49;;;;;;;16.50;12.30;;;;;;;;;;5113235;28;20199;-81
2023/02/17 11:03:20;;;;;;;13.03;10.07;;;;;;;;;;5103281;28;20256;-82
2023/02/17 11:05:53;;;;;;;18.87;13.70;;;;;;;;;;5111967;28;20217;-81
2023/02/17 11:08:30;;;;;;;14.63;10.77;;;;;;;;;;5105079;28;20640;-81
2023/02/17 11:11:02;;;;;;;11.60;9.17;;;;;;;;;;5096014;28;20214;-82
2023/02/17 11:13:34;;;;;;;12.50;9.37;;;;;;;;;;5094310;28;20219;-81
2023/02/17 11:16:01;;;;;;;16.97;9.10;;;;;;;;;;5094088;28;20215;-81
2023/02/17 11:18:29;;;;;;;9.50;6.87;;;;;;;;;;5108115;28;20206;-82
2023/02/17 11:21:01;;;;;;;4.80;4.10;;;;;;;;;;5106799;28;20258;-81
2023/02/17 11:23:29;;;;;;;9.87;6.17;;;;;;;;;;5108030;28;20660;-81
2023/02/17 11:26:00;;;;;;;6.43;3.77;;;;;;;;;;5103158;28;20271;-81
2023/02/17 11:28:27;;;;;;;3.63;3.27;;;;;;;;;;5114321;28;20210;-81
2023/02/17 11:30:56;;;;;;;3.60;2.80;;;;;;;;;;5104121;28;20207;-82
2023/02/17 11:33:29;;;;;;;18.43;5.43;;;;;;;;;;5097677;28;20733;-82
2023/02/17 11:35:56;;;;;;;3.77;2.93;;;;;;;;;;5102570;28;20204;-81
2023/02/17 11:38:42;;;;;;;3.93;2.80;;;;;;;;;;5106581;28;20204;-82
2023/02/17 11:41:09;;;;;;;4.40;2.73;;;;;;;;;;5108813;28;20231;-81
2023/02/17 11:43:37;;;;;;;2.73;2.53;;;;;;;;;;5105487;28;20744;-81
2023/02/17 11:46:14;;;;;;;6.33;2.77;;;;;;;;;;5107200;28;20231;-82
2023/02/17 11:49:02;;;;;;;2.60;2.30;;;;;;;;;;5104184;28;20211;-82
2023/02/17 11:51:34;;;;;;;5.33;3.57;;;;;;;;;;5092390;28;20207;-82
2023/02/17 11:54:11;;;;;;;7.27;3.10;;;;;;;;;;5114075;28;20268;-82
2023/02/17 11:56:41;;;;;;;2.97;2.67;;;;;;;;;;5105468;28;20204;-82
2023/02/17 11:59:27;;;;;;;3.40;2.63;;;;;;;;;;5096147;28;20667;-81
2023/02/17 12:02:06;;;;;;;3.27;2.87;;;;;;;;;;5113539;28;20206;-82
2023/02/17 12:04:35;;;;;;;4.00;2.57;;;;;;;;;;5093792;28;20227;-81
2023/02/17 12:07:25;;;;;;;3.07;2.77;;;;;;;;;;5107448;28;20286;-82
2023/02/17 12:10:00;;;;;;;4.80;3.53;;;;;;;;;;5093395;28;20742;-82
2023/02/17 12:12:33;;;;;;;4.80;3.20;;;;;;;;;;5111951;28;20280;-82
2023/02/17 12:15:08;;;;;;;3.43;3.00;;;;;;;;;;5113487;28;20199;-82
2023/02/17 12:17:43;;;;;;;3.10;2.80;;;;;;;;;;5100274;28;20365;-81
2023/02/17 12:20:26;;;;;;;3.53;2.53;;;;;;;;;;5099940;28;20204;-82
2023/02/17 12:23:04;;;;;;;8.23;4.50;;;;;;;;;;5102706;28;20203;-82
2023/02/17 12:25:36;;;;;;;3.97;3.07;;;;;;;;;;5098732;28;20261;-82
2023/02/17 12:28:12;;;;;;;3.00;2.73;;;;;;;;;;5113564;28;20212;-82
2023/02/17 12:30:50;;;;;;;4.20;3.73;;;;;;;;;;5092724;28;20640;-82
2023/02/17 12:33:39;;;;;;;2.37;2.10;;;;;;;;;;5109272;28;20207;-82
2023/02/17 12:36:09;;;;;;;4.03;2.50;;;;;;;;;;5100295;28;20200;-82
2023/02/17 12:38:40;;;;;;;1.60;1.50;;;;;;;;;;5113197;28;20263;-81
2023/02/17 12:41:11;;;;;;;4.67;1.90;;;;;;;;;;5112955;28;20199;-83
2023/02/17 12:43:42;;;;;;;1.90;1.63;;;;;;;;;;5092756;28;20227;-82
2023/02/17 12:46:10;;;;;;;2.73;1.90;;;;;;;;;;5107758;28;20762;-81
2023/02/17 12:48:40;;;;;;;4.70;1.40;;;;;;;;;;5112680;28;20203;-82
2023/02/17 12:51:10;;;;;;;6.03;1.83;;;;;;;;;;5112705;28;20693;-81
2023/02/17 12:53:42;;;;;;;2.80;1.93;;;;;;;;;;5112777;28;20211;-82
2023/02/17 12:56:30;;;;;;;5.23;3.47;;;;;;;;;;5109000;28;20207;-81
2023/02/17 12:58:59;;;;;;;8.20;2.23;;;;;;;;;;5106422;28;20211;-82
2023/02/17 13:01:31;;;;;;;1.70;1.60;;;;;;;;;;5099683;28;20294;-82
2023/02/17 13:03:59;;;;;;;4.43;2.13;;;;;;;;;;5110998;28;20716;-82
2023/02/17 13:06:32;;;;;;;6.30;2.27;;;;;;;;;;5100487;28;20199;-82
2023/02/17 13:09:03;;;;;;;5.60;2.03;;;;;;;;;;5112092;28;20604;-82
2023/02/17 13:11:33;;;;;;;2.90;2.20;;;;;;;;;;5112355;28;20273;-82
2023/02/17 13:14:10;;;;;;;2.43;2.17;;;;;;;;;;5112056;28;20766;-82
2023/02/17 13:16:42;;;;;;;2.63;2.17;;;;;;;;;;5112715;28;20810;-82
2023/02/17 13:19:09;;;;;;;2.10;1.90;;;;;;;;;;5098673;28;20678;-82
2023/02/17 13:21:36;;;;;;;2.60;2.10;;;;;;;;;;5111655;28;20619;-82
2023/02/17 13:24:06;;;;;;;2.93;2.40;;;;;;;;;;5112424;28;20227;-82
2023/02/17 13:26:35;;;;;;;2.37;2.03;;;;;;;;;;5111853;28;20705;-82
2023/02/17 13:29:35;;;;;;;3.27;1.80;;;;;;;;;;5099873;28;20280;-82
2023/02/17 13:32:04;;;;;;;7.47;3.10;;;;;;;;;;5103901;28;20230;-82
2023/02/17 13:34:34;;;;;;;3.40;2.57;;;;;;;;;;5112182;28;20682;-82
2023/02/17 13:37:04;;;;;;;2.37;2.10;;;;;;;;;;5111992;28;20200;-81
2023/02/17 13:39:36;;;;;;;2.30;2.10;;;;;;;;;;5098109;28;20226;-82
2023/02/17 13:42:25;;;;;;;2.33;1.97;;;;;;;;;;5112012;28;20203;-82
2023/02/17 13:44:52;;;;;;;4.93;2.50;;;;;;;;;;5111641;28;20234;-82
2023/02/17 13:47:30;;;;;;;2.40;2.00;;;;;;;;;;5099721;28;20289;-87
2023/02/17 13:49:57;;;;;;;2.37;1.97;;;;;;;;;;5098739;28;20210;-81
2023/02/17 13:52:26;;;;;;;2.80;2.10;;;;;;;;;;5111885;28;20226;-82
2023/02/17 13:54:54;;;;;;;5.13;1.77;;;;;;;;;;5111651;28;20206;-82
2023/02/17 13:57:27;;;;;;;4.07;2.10;;;;;;;;;;5096724;28;20204;-82
2023/02/17 14:00:05;;;;;;;2.33;2.13;;;;;;;;;;5100237;28;20211;-82
2023/02/17 14:02:32;;;;;;;2.13;1.90;;;;;;;;;;5112401;28;20195;-82
2023/02/17 14:05:00;;;;;;;2.73;2.10;;;;;;;;;;5111412;28;20234;-82
2023/02/17 14:07:27;;;;;;;3.67;2.57;;;;;;;;;;5107221;28;20193;-82
2023/02/17 14:09:54;;;;;;;5.13;2.70;;;;;;;;;;5102905;28;20211;-83
2023/02/17 14:12:23;;;;;;;4.80;3.33;;;;;;;;;;5110033;28;20583;-83
2023/02/17 14:14:51;;;;;;;2.93;2.30;;;;;;;;;;5111863;28;20208;-82
2023/02/17 14:17:29;;;;;;;3.10;2.43;;;;;;;;;;5111651;28;20199;-82
2023/02/17 14:19:56;;;;;;;2.80;2.50;;;;;;;;;;5111411;28;20211;-82
2023/02/17 14:22:27;;;;;;;3.40;2.00;;;;;;;;;;5111754;28;20261;-82
2023/02/17 14:25:01;;;;;;;2.37;2.17;;;;;;;;;;5098112;28;20281;-82
2023/02/17 14:27:29;;;;;;;1.90;1.70;;;;;;;;;;5111756;28;20201;-82
2023/02/17 14:29:57;;;;;;;2.93;1.53;;;;;;;;;;5111405;28;20202;-82
2023/02/17 14:32:28;;;;;;;2.70;2.50;;;;;;;;;;5111557;28;20210;-82
2023/02/17 14:35:07;;;;;;;2.10;1.90;;;;;;;;;;5109048;28;20298;-83
2023/02/17 14:37:35;;;;;;;4.20;1.83;;;;;;;;;;5102331;28;20210;-82
2023/02/17 14:40:02;;;;;;;5.37;2.10;;;;;;;;;;5097892;28;20263;-82
2023/02/17 14:42:29;;;;;;;2.63;2.20;;;;;;;;;;5111224;28;20209;-83